Time;durP1;ratioP1;P1;durP2;ratioP2;P2;SDS_P1;SDS_P2;PMS_P1;PMS_P2;Temp;Humidity;BMP_temperature;BMP_pressure;BME280_temperature;BME280_humidity;BME280_pressure;Samples;Min_cycle;Max_cycle;Signal;HPM_P1;HPM_P2
2021/05/24 00:00:18;;;;;;;2.30;1.45;;;;;;;11.86;55.23;99187.28;5070003;28;20032;-67
2021/05/24 00:02:43;;;;;;;3.55;1.15;;;;;;;11.83;55.55;99180.41;5067876;28;20120;-67
2021/05/24 00:05:13;;;;;;;3.65;1.40;;;;;;;11.84;55.58;99178.66;5051827;28;20324;-67
2021/05/24 00:07:39;;;;;;;2.33;1.27;;;;;;;11.83;55.72;99172.50;5069175;28;20167;-68
2021/05/24 00:10:07;;;;;;;9.02;1.52;;;;;;;11.83;55.63;99174.28;5070100;28;20067;-68
2021/05/24 00:12:32;;;;;;;6.18;1.38;;;;;;;11.81;55.49;99171.78;5069427;28;20096;-68
2021/05/24 00:14:59;;;;;;;2.70;1.20;;;;;;;11.78;55.92;99166.66;5065407;28;20040;-68
2021/05/24 00:17:24;;;;;;;1.88;1.15;;;;;;;11.76;56.18;99167.69;5059574;28;20032;-68
2021/05/24 00:19:50;;;;;;;5.30;1.85;;;;;;;11.74;56.20;99164.31;5050347;28;20039;-67
2021/05/24 00:22:15;;;;;;;1.55;1.15;;;;;;;11.72;56.40;99159.16;5067934;28;20039;-67
2021/05/24 00:24:41;;;;;;;6.57;1.73;;;;;;;11.70;56.49;99158.38;5053270;28;20369;-67
2021/05/24 00:27:07;;;;;;;2.58;0.95;;;;;;;11.68;56.96;99154.16;5070364;28;20380;-68
2021/05/24 00:29:32;;;;;;;3.67;1.30;;;;;;;11.64;56.79;99148.25;5069567;28;20041;-69
2021/05/24 00:31:58;;;;;;;3.97;1.55;;;;;;;11.61;56.74;99154.53;5069670;28;20403;-67
2021/05/24 00:34:23;;;;;;;2.55;1.38;;;;;;;11.59;56.76;99145.88;5069736;28;20079;-67
2021/05/24 00:36:49;;;;;;;1.85;1.10;;;;;;;11.59;57.55;99143.25;5068913;28;20049;-67
2021/05/24 00:39:14;;;;;;;3.50;1.63;;;;;;;11.55;57.42;99140.91;5069546;28;20108;-68
2021/05/24 00:41:41;;;;;;;4.15;1.45;;;;;;;11.55;57.72;99139.09;5070141;28;20028;-68
2021/05/24 00:44:09;;;;;;;1.63;1.08;;;;;;;11.52;57.76;99130.53;5069576;28;20036;-68
2021/05/24 00:46:34;;;;;;;3.08;1.15;;;;;;;11.50;57.97;99135.91;5069357;28;20507;-68
2021/05/24 00:49:00;;;;;;;1.98;1.20;;;;;;;11.50;57.83;99129.78;5070012;28;20079;-68
2021/05/24 00:51:26;;;;;;;2.67;1.25;;;;;;;11.48;58.47;99123.75;5069805;28;20044;-68
2021/05/24 00:53:51;;;;;;;3.92;1.98;;;;;;;11.47;58.16;99120.28;5069405;28;20044;-67
2021/05/24 00:56:18;;;;;;;1.95;1.23;;;;;;;11.47;58.37;99119.41;5068789;28;20037;-68
2021/05/24 00:58:44;;;;;;;1.75;1.30;;;;;;;11.47;58.65;99114.13;5069087;28;20040;-68
2021/05/24 01:01:09;;;;;;;1.88;1.20;;;;;;;11.47;58.92;99106.19;5041861;28;20055;-67
2021/05/24 01:03:35;;;;;;;4.97;1.30;;;;;;;11.48;58.89;99108.75;5066828;28;20032;-68
2021/05/24 01:06:00;;;;;;;5.70;1.42;;;;;;;11.48;58.92;99103.47;5068305;28;20100;-68
2021/05/24 01:08:26;;;;;;;4.20;1.50;;;;;;;11.51;59.07;99107.72;5068404;28;20476;-67
2021/05/24 01:10:51;;;;;;;4.35;1.25;;;;;;;11.54;58.48;99102.22;5069541;28;20487;-67
2021/05/24 01:13:16;;;;;;;5.65;1.25;;;;;;;11.56;59.09;99093.25;5069768;28;20141;-68
2021/05/24 01:15:42;;;;;;;4.75;2.22;;;;;;;11.58;58.90;99094.00;5069867;28;20037;-68
2021/05/24 01:18:09;;;;;;;2.53;1.40;;;;;;;11.59;58.84;99086.94;5069888;28;20056;-68
2021/05/24 01:20:36;;;;;;;2.20;1.40;;;;;;;11.61;58.50;99085.03;5069190;28;20036;-68
2021/05/24 01:25:27;;;;;;;4.10;1.35;;;;;;;11.60;59.11;99084.22;5068823;28;20047;-67
2021/05/24 01:27:53;;;;;;;3.00;1.50;;;;;;;11.61;58.97;99080.59;5069252;28;20043;-68
2021/05/24 01:30:19;;;;;;;3.10;1.13;;;;;;;11.64;59.25;99069.03;5069668;28;20139;-67
2021/05/24 01:32:44;;;;;;;5.40;1.00;;;;;;;11.68;58.50;99069.66;5069389;28;20071;-67
2021/05/24 01:35:10;;;;;;;6.55;1.27;;;;;;;11.70;58.40;99068.63;5067938;28;20047;-68
2021/05/24 01:37:36;;;;;;;3.00;1.80;;;;;;;11.77;58.77;99067.28;5068430;28;20032;-68
2021/05/24 01:40:03;;;;;;;4.70;1.30;;;;;;;11.81;58.14;99063.50;5068787;28;20040;-67
2021/05/24 01:42:28;;;;;;;2.55;1.42;;;;;;;11.86;58.34;99062.31;5068831;28;20051;-67
2021/05/24 01:44:54;;;;;;;2.50;1.50;;;;;;;11.90;57.93;99058.56;5068782;28;20460;-67
2021/05/24 01:47:19;;;;;;;3.20;1.60;;;;;;;11.94;57.54;99050.34;5071394;28;20100;-67
2021/05/24 01:49:47;;;;;;;2.45;1.33;;;;;;;11.98;57.83;99040.41;5068738;28;20040;-67
2021/05/24 01:52:15;;;;;;;1.95;1.20;;;;;;;12.01;57.42;99046.34;5069047;28;20044;-67
2021/05/24 01:54:42;;;;;;;3.58;1.30;;;;;;;12.02;57.42;99041.91;5068298;28;20039;-67
2021/05/24 01:57:07;;;;;;;3.45;1.50;;;;;;;12.04;57.40;99037.38;5067891;28;20059;-68
2021/05/24 01:59:33;;;;;;;1.73;1.10;;;;;;;12.07;57.37;99034.50;5068594;28;20066;-67
2021/05/24 02:01:58;;;;;;;3.05;1.13;;;;;;;12.05;57.38;99032.91;5069007;28;20045;-67
2021/05/24 02:04:24;;;;;;;6.50;1.70;;;;;;;12.08;57.35;99033.53;5068387;28;20504;-68
2021/05/24 02:06:49;;;;;;;2.88;1.00;;;;;;;12.09;57.43;99032.63;5073288;28;20480;-66
2021/05/24 02:09:14;;;;;;;2.10;1.10;;;;;;;12.09;57.36;99034.41;5072354;28;20025;-67
2021/05/24 02:11:41;;;;;;;4.22;1.25;;;;;;;12.10;57.46;99029.00;5072323;28;20113;-66
2021/05/24 02:14:06;;;;;;;3.80;1.25;;;;;;;12.10;57.25;99020.25;5072391;28;20032;-68
2021/05/24 02:16:40;;;;;;;2.83;1.30;;;;;;;12.12;57.05;99024.47;5072199;28;20151;-68
2021/05/24 02:19:10;;;;;;;5.53;1.48;;;;;;;12.14;57.19;99027.03;5072387;28;20063;-67
2021/05/24 02:21:37;;;;;;;3.67;1.73;;;;;;;12.14;56.63;99019.94;5072443;28;20051;-67
2021/05/24 02:24:04;;;;;;;3.72;2.35;;;;;;;12.16;56.85;99019.84;5072054;28;20051;-67
2021/05/24 02:26:29;;;;;;;6.63;1.30;;;;;;;12.18;56.82;99021.44;5071670;28;20404;-68
2021/05/24 02:28:55;;;;;;;1.85;1.10;;;;;;;12.17;56.57;99019.72;5053645;28;20028;-68
2021/05/24 02:31:20;;;;;;;2.88;1.20;;;;;;;12.20;56.70;99013.38;5072245;28;20038;-68
2021/05/24 02:33:47;;;;;;;2.20;1.38;;;;;;;12.21;56.46;99009.81;5072218;28;20036;-67
2021/05/24 02:36:13;;;;;;;1.92;1.20;;;;;;;12.22;56.81;99004.41;5070778;28;20403;-68
2021/05/24 02:38:38;;;;;;;3.63;1.40;;;;;;;12.24;56.57;98999.84;5072056;28;20115;-67
2021/05/24 02:41:04;;;;;;;5.05;1.33;;;;;;;12.23;56.28;98989.38;5071836;28;20550;-68
2021/05/24 02:43:29;;;;;;;2.38;1.08;;;;;;;12.24;56.23;98991.09;5071555;28;20025;-68
2021/05/24 02:45:54;;;;;;;2.95;1.40;;;;;;;12.25;56.28;98990.13;5071339;28;20056;-69
2021/05/24 02:48:20;;;;;;;5.50;1.88;;;;;;;12.22;56.36;98985.91;5072548;28;20032;-68
2021/05/24 02:50:46;;;;;;;1.75;1.20;;;;;;;12.24;56.52;98991.94;5071635;28;20028;-67
2021/05/24 02:53:11;;;;;;;2.42;1.30;;;;;;;12.30;56.15;98981.88;5071548;28;20090;-67
2021/05/24 02:55:37;;;;;;;2.15;1.38;;;;;;;12.33;56.57;98984.31;5071316;28;20045;-67
2021/05/24 02:58:04;;;;;;;3.33;1.73;;;;;;;12.35;56.22;98979.75;5071288;28;20078;-68
2021/05/24 03:00:29;;;;;;;3.78;1.08;;;;;;;12.34;55.78;98980.72;5071743;28;20036;-67
2021/05/24 03:02:56;;;;;;;4.43;1.50;;;;;;;12.34;56.07;98976.28;5071635;28;20037;-67
2021/05/24 03:05:22;;;;;;;4.47;1.20;;;;;;;12.34;55.87;98975.44;5071356;28;20028;-66
2021/05/24 03:07:49;;;;;;;3.33;1.50;;;;;;;12.31;55.85;98978.31;5071531;28;20070;-67
2021/05/24 03:10:16;;;;;;;2.70;1.20;;;;;;;12.34;55.78;98978.94;5071224;28;20037;-67
2021/05/24 03:12:42;;;;;;;2.45;1.30;;;;;;;12.33;55.80;98961.38;5053850;28;20039;-68
2021/05/24 03:15:08;;;;;;;6.20;1.70;;;;;;;12.36;55.90;98970.91;5071333;28;20033;-66
2021/05/24 03:17:34;;;;;;;6.93;1.42;;;;;;;12.37;55.76;98964.66;5074172;28;20036;-68
2021/05/24 03:19:59;;;;;;;2.00;1.23;;;;;;;12.36;55.23;98958.53;5067851;28;20040;-67
2021/05/24 03:22:24;;;;;;;5.03;1.38;;;;;;;12.39;55.32;98950.38;5071114;28;20112;-67
2021/05/24 03:24:50;;;;;;;1.95;1.10;;;;;;;12.40;55.15;98951.22;5071325;28;20094;-67
2021/05/24 03:27:16;;;;;;;2.65;1.33;;;;;;;12.43;55.53;98958.94;5070395;28;20391;-68
2021/05/24 03:29:41;;;;;;;5.68;1.70;;;;;;;12.43;54.93;98962.44;5070817;28;20484;-67
2021/05/24 03:32:07;;;;;;;7.05;1.85;;;;;;;12.46;54.82;98956.09;5052944;28;20044;-67
2021/05/24 03:34:33;;;;;;;2.60;1.30;;;;;;;12.45;54.83;98954.38;5071015;28;20043;-68
2021/05/24 03:36:58;;;;;;;4.57;1.90;;;;;;;12.46;54.76;98946.34;5069439;28;20045;-68
2021/05/24 03:39:24;;;;;;;1.98;1.35;;;;;;;12.47;54.62;98955.13;5069051;28;20040;-68
2021/05/24 03:41:49;;;;;;;5.38;1.70;;;;;;;12.47;54.69;98944.53;5070003;28;20116;-68
2021/05/24 03:44:15;;;;;;;4.15;1.33;;;;;;;12.48;54.73;98955.94;5069895;28;20059;-69
2021/05/24 03:46:40;;;;;;;2.47;1.50;;;;;;;12.48;54.74;98948.91;5070613;28;20048;-67
2021/05/24 03:49:06;;;;;;;2.90;1.50;;;;;;;12.44;54.64;98950.06;5070510;28;20064;-68
2021/05/24 03:51:31;;;;;;;5.82;1.58;;;;;;;12.47;54.90;98949.81;5052575;28;20025;-68
2021/05/24 03:53:57;;;;;;;4.82;1.38;;;;;;;12.45;54.59;98952.59;5070439;28;20079;-68
2021/05/24 03:56:23;;;;;;;3.20;1.35;;;;;;;12.42;54.52;98957.25;5074160;28;20112;-67
2021/05/24 03:58:48;;;;;;;2.58;1.30;;;;;;;12.45;54.63;98959.66;5090303;28;20059;-68
2021/05/24 04:01:14;;;;;;;2.55;1.23;;;;;;;12.40;54.51;98961.78;5090466;28;20121;-67
2021/05/24 04:03:39;;;;;;;2.88;1.50;;;;;;;12.34;54.57;98960.41;5090292;28;20039;-67
2021/05/24 04:06:06;;;;;;;4.93;2.25;;;;;;;12.32;54.51;98961.47;5082968;28;20044;-67
2021/05/24 04:08:41;;;;;;;3.50;1.30;;;;;;;12.32;55.09;98961.47;5070249;28;20040;-67
2021/05/24 04:11:07;;;;;;;1.63;1.40;;;;;;;12.27;54.66;98961.78;5070111;28;20032;-69
2021/05/24 04:13:32;;;;;;;5.97;1.65;;;;;;;12.24;55.21;98957.56;5076026;28;20563;-68
2021/05/24 04:15:59;;;;;;;1.42;1.10;;;;;;;12.19;55.01;98958.84;5086648;28;20052;-69
2021/05/24 04:18:28;;;;;;;2.78;1.40;;;;;;;12.20;54.60;98961.38;5070388;28;20085;-67
2021/05/24 04:20:53;;;;;;;5.53;1.70;;;;;;;12.17;54.78;98950.19;5061872;28;20102;-69
2021/05/24 04:23:19;;;;;;;2.00;1.20;;;;;;;12.20;54.61;98953.44;5069504;28;20484;-66
2021/05/24 04:25:45;;;;;;;4.15;1.95;;;;;;;12.22;55.02;98945.41;5064350;28;20188;-69
2021/05/24 04:28:11;;;;;;;2.95;1.95;;;;;;;12.22;54.81;98946.25;5050019;28;20603;-68
2021/05/24 04:30:36;;;;;;;7.25;1.42;;;;;;;12.21;54.73;98949.88;5049742;28;20123;-68
2021/05/24 04:33:01;;;;;;;3.42;1.15;;;;;;;12.25;55.14;98943.41;5050030;28;20094;-67
2021/05/24 04:35:27;;;;;;;3.10;1.45;;;;;;;12.27;54.75;98937.19;5062119;28;20437;-67
2021/05/24 04:37:52;;;;;;;3.33;1.50;;;;;;;12.33;55.04;98942.00;5067970;28;20131;-67
2021/05/24 04:40:18;;;;;;;4.00;1.45;;;;;;;12.35;54.68;98934.84;5066704;28;20028;-67
2021/05/24 04:42:45;;;;;;;6.68;1.85;;;;;;;12.37;54.24;98940.84;5069613;28;20032;-66
2021/05/24 04:45:11;;;;;;;2.50;1.58;;;;;;;12.40;54.52;98940.63;5068990;28;20056;-67
2021/05/24 04:47:36;;;;;;;3.17;1.50;;;;;;;12.45;54.57;98931.44;5067302;28;20113;-66
2021/05/24 04:50:03;;;;;;;3.00;1.63;;;;;;;12.55;54.22;98934.28;5068907;28;20503;-67
2021/05/24 04:52:28;;;;;;;8.60;2.15;;;;;;;12.56;54.18;98935.13;5069606;28;20029;-67
2021/05/24 04:54:53;;;;;;;4.20;2.88;;;;;;;12.58;54.19;98926.13;5069643;28;20078;-67
2021/05/24 04:57:19;;;;;;;4.70;1.48;;;;;;;12.62;54.12;98918.81;5069082;28;20045;-67
2021/05/24 04:59:45;;;;;;;3.53;1.30;;;;;;;12.68;53.55;98916.56;5068964;28;20407;-67
2021/05/24 05:02:11;;;;;;;5.68;2.03;;;;;;;12.77;53.48;98919.50;5069893;28;20032;-67
2021/05/24 05:04:36;;;;;;;3.60;1.48;;;;;;;12.85;53.70;98914.53;5069304;28;20033;-67
2021/05/24 05:07:02;;;;;;;5.13;1.83;;;;;;;12.85;53.13;98911.88;5068817;28;20036;-68
2021/05/24 05:09:27;;;;;;;2.05;1.23;;;;;;;12.99;53.69;98914.34;5068793;28;20034;-68
2021/05/24 05:11:53;;;;;;;3.53;1.73;;;;;;;13.02;53.04;98907.97;5069308;28;20036;-68
2021/05/24 05:14:20;;;;;;;3.65;1.67;;;;;;;13.25;52.93;98901.84;5068761;28;20033;-68
2021/05/24 05:16:45;;;;;;;3.60;1.42;;;;;;;13.38;52.34;98896.50;5067895;28;20416;-68
2021/05/24 05:19:11;;;;;;;8.10;1.92;;;;;;;13.45;51.96;98896.91;5068715;28;20044;-68
2021/05/24 05:21:36;;;;;;;2.55;1.60;;;;;;;13.42;52.15;98900.63;5068384;28;20480;-67
2021/05/24 05:24:01;;;;;;;2.42;1.77;;;;;;;13.35;52.57;98898.56;5067359;28;20506;-67
2021/05/24 05:26:27;;;;;;;3.00;1.60;;;;;;;13.44;52.33;98895.22;5068431;28;20550;-68
2021/05/24 05:28:52;;;;;;;3.33;1.40;;;;;;;13.58;51.76;98896.81;5069098;28;20380;-68
2021/05/24 05:31:17;;;;;;;6.40;1.95;;;;;;;13.68;51.15;98893.34;5068696;28;20036;-68
2021/05/24 05:33:43;;;;;;;2.35;1.50;;;;;;;13.92;51.53;98901.19;5068561;28;20040;-68
2021/05/24 05:36:08;;;;;;;2.28;1.40;;;;;;;13.99;50.77;98884.84;5068272;28;20485;-68
2021/05/24 05:38:34;;;;;;;4.93;1.50;;;;;;;14.02;50.58;98885.44;5067084;28;20029;-67
2021/05/24 05:41:00;;;;;;;2.35;1.55;;;;;;;14.01;50.72;98894.38;5068415;28;20045;-67
2021/05/24 05:43:25;;;;;;;6.88;2.55;;;;;;;14.01;50.77;98890.88;5065291;28;20037;-67
2021/05/24 05:45:51;;;;;;;4.75;1.98;;;;;;;14.18;50.60;98890.41;5072940;28;20042;-68
2021/05/24 05:48:17;;;;;;;5.55;1.73;;;;;;;14.37;50.40;98888.00;5072511;28;20030;-67
2021/05/24 05:50:42;;;;;;;3.05;1.40;;;;;;;14.57;49.85;98896.16;5072537;28;20087;-67
2021/05/24 05:53:08;;;;;;;4.28;1.77;;;;;;;14.53;49.81;98884.97;5072308;28;20048;-67
2021/05/24 05:55:33;;;;;;;3.60;1.70;;;;;;;14.58;49.90;98876.66;5071302;28;20040;-67
2021/05/24 05:57:58;;;;;;;6.68;2.22;;;;;;;14.60;49.59;98882.69;5072440;28;20049;-68
2021/05/24 06:00:24;;;;;;;2.47;1.35;;;;;;;14.67;48.87;98875.06;5072781;28;20036;-68
2021/05/24 06:02:50;;;;;;;5.22;1.98;;;;;;;14.48;48.58;98873.03;5076423;28;20028;-68
2021/05/24 06:05:16;;;;;;;4.18;1.58;;;;;;;14.49;49.07;98880.00;5072296;28;20553;-67
2021/05/24 06:07:41;;;;;;;4.40;1.75;;;;;;;14.45;48.98;98870.59;5072337;28;20021;-68
2021/05/24 06:10:09;;;;;;;3.30;1.83;;;;;;;14.41;48.99;98875.31;5072135;28;20041;-67
2021/05/24 06:12:34;;;;;;;5.03;1.83;;;;;;;14.48;49.06;98878.31;5071668;28;20094;-68
2021/05/24 06:15:00;;;;;;;5.15;1.90;;;;;;;14.54;49.17;98876.03;5072006;28;20032;-68
2021/05/24 06:17:26;;;;;;;2.63;1.40;;;;;;;14.53;48.13;98857.59;5072494;28;20033;-68
2021/05/24 06:19:51;;;;;;;6.00;1.65;;;;;;;14.52;48.06;98869.13;5072393;28;20036;-68
2021/05/24 06:22:17;;;;;;;3.50;1.67;;;;;;;14.56;48.10;98862.66;5072320;28;20045;-68
2021/05/24 06:24:42;;;;;;;5.28;1.85;;;;;;;14.67;47.86;98864.44;5074775;28;20159;-68
2021/05/24 06:27:08;;;;;;;2.20;1.20;;;;;;;14.78;47.88;98856.47;5071151;28;20119;-68
2021/05/24 06:29:33;;;;;;;5.22;1.55;;;;;;;14.80;48.10;98868.63;5072053;28;20041;-69
2021/05/24 06:31:59;;;;;;;2.58;1.50;;;;;;;14.90;48.34;98875.84;5068988;28;20044;-69
2021/05/24 06:34:25;;;;;;;4.35;1.70;;;;;;;14.93;48.24;98857.03;5072212;28;20028;-68
2021/05/24 06:36:50;;;;;;;2.60;1.40;;;;;;;14.96;47.72;98854.09;5071484;28;20037;-67
2021/05/24 06:39:17;;;;;;;5.45;1.65;;;;;;;14.94;48.15;98850.72;5071735;28;20033;-68
2021/05/24 06:41:42;;;;;;;4.28;2.15;;;;;;;14.88;47.54;98852.09;5071932;28;20028;-68
2021/05/24 06:44:08;;;;;;;2.40;1.30;;;;;;;14.86;47.63;98847.88;5071767;28;20043;-68
2021/05/24 06:46:34;;;;;;;3.80;1.35;;;;;;;14.86;47.72;98850.53;5070998;28;20365;-67
2021/05/24 06:48:59;;;;;;;7.00;1.55;;;;;;;14.90;47.87;98844.00;5071819;28;20411;-68
2021/05/24 06:51:25;;;;;;;12.93;1.70;;;;;;;14.90;47.96;98836.88;5071748;28;20135;-68
2021/05/24 06:53:52;;;;;;;2.22;1.40;;;;;;;14.86;47.79;98843.41;5053507;28;20060;-69
2021/05/24 06:56:17;;;;;;;3.30;1.55;;;;;;;14.87;47.80;98836.31;5070708;28;20400;-67
2021/05/24 06:58:43;;;;;;;2.38;1.67;;;;;;;14.98;47.84;98846.88;5071769;28;20040;-68
2021/05/24 07:01:08;;;;;;;3.72;1.65;;;;;;;15.04;47.81;98838.41;5071737;28;20044;-67
2021/05/24 07:03:33;;;;;;;2.40;1.48;;;;;;;15.15;47.79;98838.34;5072098;28;20028;-67
2021/05/24 07:05:59;;;;;;;2.95;1.65;;;;;;;15.25;47.82;98854.34;5067290;28;20561;-67
2021/05/24 07:08:24;;;;;;;7.75;1.90;;;;;;;15.24;46.92;98848.19;5068052;28;20039;-67
2021/05/24 07:10:50;;;;;;;3.47;1.63;;;;;;;15.27;47.12;98840.94;5059944;28;20119;-68
2021/05/24 07:13:15;;;;;;;6.43;1.92;;;;;;;15.33;46.53;98849.22;5072293;28;20040;-69
2021/05/24 07:15:40;;;;;;;5.63;1.80;;;;;;;15.24;47.33;98840.25;5071101;28;20047;-68
2021/05/24 07:18:06;;;;;;;3.08;1.48;;;;;;;15.24;47.75;98840.25;5071087;28;20403;-68
2021/05/24 07:20:32;;;;;;;7.05;2.13;;;;;;;15.25;47.94;98833.94;5071330;28;20033;-68
2021/05/24 07:22:57;;;;;;;6.63;1.73;;;;;;;15.15;47.34;98843.66;5071072;28;20039;-70
2021/05/24 07:25:22;;;;;;;4.45;1.52;;;;;;;15.14;47.33;98849.94;5068990;28;20040;-68
2021/05/24 07:27:48;;;;;;;3.13;1.50;;;;;;;15.09;47.44;98843.31;5069804;28;20037;-68
2021/05/24 07:30:14;;;;;;;4.30;1.30;;;;;;;15.12;47.94;98838.59;5071163;28;20033;-67
2021/05/24 07:32:40;;;;;;;2.75;1.30;;;;;;;15.21;48.04;98842.28;5071095;28;20119;-69
2021/05/24 07:35:06;;;;;;;4.07;1.92;;;;;;;15.18;47.51;98827.47;5071014;28;20032;-68
2021/05/24 07:37:32;;;;;;;7.25;1.88;;;;;;;15.23;47.30;98835.91;5071228;28;20353;-69
2021/05/24 07:39:57;;;;;;;2.00;1.30;;;;;;;15.32;47.71;98838.75;5071402;28;20033;-68
2021/05/24 07:42:22;;;;;;;3.70;1.83;;;;;;;15.30;47.66;98840.69;5071348;28;20111;-66
2021/05/24 07:44:48;;;;;;;3.50;1.60;;;;;;;15.29;47.70;98831.06;5070456;28;20059;-67
2021/05/24 07:47:13;;;;;;;1.77;1.10;;;;;;;15.32;47.86;98830.78;5070341;28;20025;-69
2021/05/24 07:49:38;;;;;;;6.70;1.60;;;;;;;15.38;48.07;98838.22;5069975;28;20093;-67
2021/05/24 07:52:04;;;;;;;2.92;1.10;;;;;;;15.40;48.13;98838.94;5052556;28;20400;-68
2021/05/24 07:54:29;;;;;;;3.08;1.38;;;;;;;15.34;48.15;98845.63;5070244;28;20036;-68
2021/05/24 07:56:55;;;;;;;3.65;1.80;;;;;;;15.32;48.13;98839.59;5070398;28;20124;-68
2021/05/24 07:59:20;;;;;;;4.30;1.63;;;;;;;15.37;48.34;98841.88;5063505;28;20032;-68
2021/05/24 08:01:46;;;;;;;2.85;1.95;;;;;;;15.44;47.84;98837.72;5090552;28;20047;-68
2021/05/24 08:04:11;;;;;;;4.43;1.65;;;;;;;15.54;48.44;98829.81;5088409;28;20039;-69
2021/05/24 08:06:37;;;;;;;5.35;1.90;;;;;;;15.47;48.43;98842.75;5088509;28;20024;-68
2021/05/24 08:09:03;;;;;;;3.38;1.55;;;;;;;15.59;48.13;98852.34;5069666;28;20036;-67
2021/05/24 08:11:29;;;;;;;5.72;2.67;;;;;;;15.65;47.44;98835.91;5070110;28;20044;-67
2021/05/24 08:13:54;;;;;;;3.35;1.80;;;;;;;15.60;47.53;98835.47;5070565;28;20040;-68
2021/05/24 08:16:23;;;;;;;1.83;1.50;;;;;;;15.70;47.21;98834.69;5069643;28;20507;-68
2021/05/24 08:18:49;;;;;;;4.45;1.88;;;;;;;15.87;46.92;98824.31;5081811;28;20066;-67
2021/05/24 08:21:15;;;;;;;2.47;1.75;;;;;;;16.05;46.05;98829.81;5071909;28;20375;-68
2021/05/24 08:23:44;;;;;;;3.25;1.70;;;;;;;16.13;45.76;98826.50;5089570;28;20373;-67
2021/05/24 08:26:10;;;;;;;5.45;2.33;;;;;;;16.12;45.65;98822.16;5077855;28;20120;-69
2021/05/24 08:28:35;;;;;;;4.63;1.63;;;;;;;16.20;45.87;98829.47;5069582;28;20060;-68
2021/05/24 08:31:01;;;;;;;4.68;1.70;;;;;;;16.23;45.58;98819.38;5070214;28;20112;-68
2021/05/24 08:33:27;;;;;;;3.97;1.42;;;;;;;16.31;45.56;98821.38;5061949;28;20405;-69
2021/05/24 08:35:53;;;;;;;4.60;1.60;;;;;;;16.49;45.28;98822.41;5069854;28;20040;-68
2021/05/24 08:38:19;;;;;;;3.83;1.60;;;;;;;16.55;44.18;98821.00;5070390;28;20115;-68
2021/05/24 08:40:46;;;;;;;4.35;1.60;;;;;;;16.50;44.40;98821.41;5070337;28;20563;-68
2021/05/24 08:43:14;;;;;;;9.75;1.85;;;;;;;16.47;44.53;98826.19;5070128;28;20051;-69
2021/05/24 08:45:39;;;;;;;3.83;1.52;;;;;;;16.46;43.93;98819.16;5068823;28;20048;-68
2021/05/24 08:48:06;;;;;;;4.57;1.80;;;;;;;16.43;44.00;98817.63;5063514;28;20065;-68
2021/05/24 08:50:32;;;;;;;3.80;1.88;;;;;;;16.50;44.11;98813.44;5069937;28;20021;-70
2021/05/24 08:52:57;;;;;;;6.97;2.28;;;;;;;16.43;43.08;98809.63;5070085;28;20495;-69
2021/05/24 08:55:22;;;;;;;3.15;1.50;;;;;;;16.29;43.13;98808.22;5051062;28;20695;-69
2021/05/24 08:57:48;;;;;;;3.50;1.30;;;;;;;16.26;42.33;98802.31;5067895;28;20527;-68
2021/05/24 09:00:16;;;;;;;4.18;1.48;;;;;;;16.27;43.33;98804.84;5069175;28;20032;-68
2021/05/24 09:02:55;;;;;;;3.58;1.73;;;;;;;16.37;44.46;98815.53;5060294;28;20871;-69
2021/05/24 09:05:26;;;;;;;3.22;1.70;;;;;;;16.35;47.27;98808.66;5055553;28;20033;-51
2021/05/24 09:07:54;;;;;;;9.07;1.40;;;;;;;16.65;45.45;98805.06;5066385;28;20028;-48
2021/05/24 09:10:22;;;;;;;5.57;1.83;;;;;;;16.71;43.38;98800.03;5046971;28;20048;-50
2021/05/24 09:12:47;;;;;;;2.90;1.48;;;;;;;16.75;43.19;98824.53;5060107;28;20043;-48
2021/05/24 09:15:14;;;;;;;4.43;1.85;;;;;;;16.62;42.36;98805.34;5059114;28;20048;-50
2021/05/24 09:17:50;;;;;;;2.92;1.70;;;;;;;16.61;42.31;98809.78;5069689;28;20086;-49
2021/05/24 09:20:30;;;;;;;4.95;1.40;;;;;;;16.63;42.76;98799.88;5067742;28;20047;-51
2021/05/24 09:23:15;;;;;;;2.08;1.27;;;;;;;16.68;42.17;98794.97;5070379;28;20070;-46
2021/05/24 09:26:00;;;;;;;4.47;1.60;;;;;;;16.73;42.04;98799.88;5062945;28;20055;-48
2021/05/24 09:28:26;;;;;;;2.80;1.40;;;;;;;16.85;42.19;98795.28;5065659;28;20278;-48
2021/05/24 09:31:16;;;;;;;4.35;1.52;;;;;;;16.91;41.85;98800.91;5068862;28;20032;-50
2021/05/24 09:33:45;;;;;;;6.63;1.58;;;;;;;16.99;41.84;98788.72;5068410;28;20036;-48
2021/05/24 09:36:11;;;;;;;4.82;1.38;;;;;;;17.04;42.13;98781.16;5069079;28;20037;-47
2021/05/24 09:38:48;;;;;;;1.55;1.10;;;;;;;17.05;42.25;98788.13;5069351;28;20036;-47
2021/05/24 09:41:15;;;;;;;3.53;1.38;;;;;;;17.10;42.18;98794.72;5069004;28;20036;-47
2021/05/24 09:43:43;;;;;;;5.60;3.33;;;;;;;17.24;42.49;98782.78;5069232;28;20040;-50
2021/05/24 09:46:10;;;;;;;2.70;1.38;;;;;;;17.19;42.80;98789.53;5068452;28;20036;-51
2021/05/24 09:48:36;;;;;;;6.30;1.30;;;;;;;17.19;43.07;98794.88;5068660;28;20029;-54
2021/05/24 09:51:04;;;;;;;2.83;1.73;;;;;;;16.94;43.43;98797.97;5069596;28;20052;-61
2021/05/24 09:53:29;;;;;;;3.47;1.25;;;;;;;16.78;43.75;98795.00;5069688;28;20514;-62
2021/05/24 09:56:02;;;;;;;3.33;1.48;;;;;;;16.59;44.96;98789.63;5051367;28;20044;-63
2021/05/24 09:58:27;;;;;;;4.18;1.42;;;;;;;16.55;46.02;98801.56;5054806;28;20037;-63
2021/05/24 10:01:02;;;;;;;2.47;1.30;;;;;;;16.37;47.05;98791.56;5063114;28;20817;-62
2021/05/24 10:03:31;;;;;;;2.22;1.10;;;;;;;16.33;48.09;98797.31;5063039;28;20048;-64
2021/05/24 10:05:57;;;;;;;4.50;1.50;;;;;;;16.23;47.39;98799.94;5066429;28;20032;-64
2021/05/24 10:08:23;;;;;;;1.20;1.10;;;;;;;16.10;48.16;98805.50;5062909;28;20056;-63
2021/05/24 10:10:49;;;;;;;3.15;1.70;;;;;;;15.96;50.02;98798.72;5062575;28;20062;-64
2021/05/24 10:13:14;;;;;;;1.33;1.20;;;;;;;15.87;49.91;98802.16;5063079;28;20028;-63
2021/05/24 10:15:41;;;;;;;4.10;1.42;;;;;;;15.73;50.80;98797.25;5062620;28;20033;-62
2021/05/24 10:18:07;;;;;;;4.65;1.20;;;;;;;15.64;52.00;98796.16;5064060;28;20071;-61
2021/05/24 10:20:34;;;;;;;1.58;1.20;;;;;;;15.66;53.39;98799.53;5064185;28;20105;-62
2021/05/24 10:22:59;;;;;;;3.03;1.15;;;;;;;15.59;54.44;98793.91;5065476;28;20084;-64
2021/05/24 10:25:25;;;;;;;7.18;1.85;;;;;;;15.71;54.77;98789.38;5070559;28;20514;-63
2021/05/24 10:27:51;;;;;;;2.05;1.08;;;;;;;15.55;54.45;98792.47;5065813;28;20052;-63
2021/05/24 10:30:18;;;;;;;1.90;1.15;;;;;;;15.35;57.22;98791.53;5067193;28;20114;-68
2021/05/24 10:32:56;;;;;;;2.35;1.20;;;;;;;15.07;58.14;98798.31;5067904;28;20062;-69
2021/05/24 10:35:31;;;;;;;2.15;1.30;;;;;;;15.03;57.34;98796.88;5067393;28;20089;-68
2021/05/24 10:37:56;;;;;;;1.80;1.17;;;;;;;14.91;57.12;98797.91;5066998;28;20158;-68
2021/05/24 10:40:21;;;;;;;1.40;1.20;;;;;;;14.85;56.49;98795.78;5066360;28;20539;-69
2021/05/24 10:42:47;;;;;;;3.88;1.92;;;;;;;14.81;57.78;98787.22;5066852;28;20064;-68
2021/05/24 10:45:24;;;;;;;1.67;1.00;;;;;;;14.77;59.10;98805.22;5066780;28;20127;-68
2021/05/24 10:48:01;;;;;;;2.35;1.52;;;;;;;14.68;59.60;98800.66;5066390;28;20598;-68
2021/05/24 10:50:31;;;;;;;2.45;1.33;;;;;;;14.39;59.48;98810.94;5054437;28;20048;-68
2021/05/24 10:53:20;;;;;;;2.10;1.50;;;;;;;14.43;61.12;98809.75;5028938;28;20037;-68
2021/05/24 10:55:49;;;;;;;0.93;0.93;;;;;;;14.26;61.83;98816.41;5057449;28;20053;-69
2021/05/24 10:58:16;;;;;;;3.72;1.25;;;;;;;14.24;62.66;98817.50;5060263;28;20089;-67
2021/05/24 11:00:55;;;;;;;2.17;1.35;;;;;;;14.29;62.43;98821.44;5063342;28;20043;-68
2021/05/24 11:03:23;;;;;;;3.60;1.08;;;;;;;14.48;62.51;98817.31;5066560;28;20044;-68
2021/05/24 11:06:12;;;;;;;3.92;1.27;;;;;;;14.63;63.19;98812.63;5065535;28;20049;-68
2021/05/24 11:08:41;;;;;;;2.75;1.50;;;;;;;14.80;62.62;98817.38;5063347;28;20028;-68
2021/05/24 11:11:20;;;;;;;1.73;1.10;;;;;;;14.94;61.78;98822.41;5047963;28;20028;-68
2021/05/24 11:13:59;;;;;;;1.30;1.20;;;;;;;15.06;62.65;98823.16;5065719;28;20044;-66
2021/05/24 11:16:26;;;;;;;2.28;1.50;;;;;;;15.03;63.00;98818.97;5064790;28;20041;-68
2021/05/24 11:19:07;;;;;;;1.88;1.27;;;;;;;15.08;62.65;98815.09;5065519;28;20044;-67
2021/05/24 11:21:32;;;;;;;1.63;1.42;;;;;;;14.80;63.11;98809.44;5065325;28;20036;-68
2021/05/24 11:26:33;;;;;;;2.88;1.38;;;;;;;14.64;64.14;98809.00;5065085;28;20684;-67
2021/05/24 11:29:15;;;;;;;1.77;1.07;;;;;;;14.76;62.17;98808.81;5065298;28;20024;-68
2021/05/24 11:31:53;;;;;;;2.25;1.40;;;;;;;14.85;64.15;98807.22;5064920;28;20055;-67
2021/05/24 11:34:39;;;;;;;2.38;1.10;;;;;;;15.07;64.03;98811.59;5065303;28;20049;-67
2021/05/24 11:37:08;;;;;;;10.73;9.63;;;;;;;15.14;62.54;98806.63;5064157;28;20136;-68